Time;durP1;ratioP1;P1;durP2;ratioP2;P2;SDS_P1;SDS_P2;PMS_P1;PMS_P2;Temp;Humidity;BMP_temperature;BMP_pressure;BME280_temperature;BME280_humidity;BME280_pressure;Samples;Min_cycle;Max_cycle;Signal;HPM_P1;HPM_P2
2022/01/31 00:00:54;;;;;;;32.22;15.63;;;;;;;;;;5036639;28;20025;-76
2022/01/31 00:03:20;;;;;;;35.53;17.23;;;;;;;;;;5036078;28;20106;-75
2022/01/31 00:05:46;;;;;;;50.30;18.33;;;;;;;;;;5051034;28;20017;-77
2022/01/31 00:08:11;;;;;;;42.40;19.13;;;;;;;;;;5036651;28;20468;-76
2022/01/31 00:10:37;;;;;;;38.75;16.73;;;;;;;;;;5035842;28;20456;-76
2022/01/31 00:13:08;;;;;;;46.42;19.02;;;;;;;;;;5035880;28;20191;-76
2022/01/31 00:15:39;;;;;;;45.00;18.13;;;;;;;;;;5051401;28;20051;-76
2022/01/31 00:18:05;;;;;;;42.53;18.58;;;;;;;;;;5053807;28;20024;-77
2022/01/31 00:20:30;;;;;;;62.10;25.20;;;;;;;;;;5053291;28;20027;-76
2022/01/31 00:22:55;;;;;;;65.95;25.77;;;;;;;;;;5054310;28;20055;-76
2022/01/31 00:25:21;;;;;;;31.20;13.52;;;;;;;;;;5053622;28;20028;-76
2022/01/31 00:27:47;;;;;;;25.90;8.63;;;;;;;;;;5053861;28;20025;-75
2022/01/31 00:30:13;;;;;;;92.18;38.90;;;;;;;;;;5034441;28;20032;-76
2022/01/31 00:32:38;;;;;;;79.85;30.98;;;;;;;;;;5041779;28;20033;-79
2022/01/31 00:35:04;;;;;;;46.38;16.05;;;;;;;;;;5053918;28;20100;-76
2022/01/31 00:37:29;;;;;;;31.25;8.15;;;;;;;;;;5036233;28;20052;-76
2022/01/31 00:39:55;;;;;;;34.30;15.43;;;;;;;;;;5035344;28;20106;-75
2022/01/31 00:42:20;;;;;;;42.40;16.15;;;;;;;;;;5035833;28;20078;-75
2022/01/31 00:44:52;;;;;;;30.90;14.15;;;;;;;;;;5036245;28;20033;-75
2022/01/31 00:47:24;;;;;;;24.98;10.90;;;;;;;;;;5053526;28;20127;-76
2022/01/31 00:49:51;;;;;;;30.02;10.95;;;;;;;;;;5053741;28;20020;-76
2022/01/31 00:52:17;;;;;;;54.03;26.50;;;;;;;;;;5053324;28;20060;-75
2022/01/31 00:54:42;;;;;;;35.97;14.40;;;;;;;;;;5069213;28;20056;-78
2022/01/31 00:57:08;;;;;;;23.40;11.00;;;;;;;;;;5055196;28;20036;-76
2022/01/31 00:59:33;;;;;;;22.52;7.93;;;;;;;;;;5035413;28;20029;-75
2022/01/31 01:01:58;;;;;;;20.02;8.25;;;;;;;;;;5035650;28;20039;-75
2022/01/31 01:04:24;;;;;;;18.77;7.15;;;;;;;;;;5036008;28;20028;-75
2022/01/31 01:06:49;;;;;;;28.35;10.30;;;;;;;;;;5044090;28;20028;-75
2022/01/31 01:09:14;;;;;;;36.00;8.45;;;;;;;;;;5053867;28;20020;-75
2022/01/31 01:11:40;;;;;;;16.52;6.97;;;;;;;;;;5052936;28;20665;-75
2022/01/31 01:14:05;;;;;;;37.42;13.45;;;;;;;;;;5052502;28;20518;-77
2022/01/31 01:16:31;;;;;;;25.42;8.05;;;;;;;;;;5035653;28;20029;-76
2022/01/31 01:18:56;;;;;;;19.65;8.82;;;;;;;;;;5048855;28;20025;-79
2022/01/31 01:21:21;;;;;;;21.60;7.13;;;;;;;;;;5036172;28;20025;-77
2022/01/31 01:23:47;;;;;;;26.63;10.80;;;;;;;;;;5039493;28;20078;-75
2022/01/31 01:26:12;;;;;;;30.05;9.85;;;;;;;;;;5053119;28;20387;-75
2022/01/31 01:28:38;;;;;;;22.05;8.88;;;;;;;;;;5052837;28;20104;-75
2022/01/31 01:31:03;;;;;;;11.50;3.17;;;;;;;;;;5053458;28;20016;-76
2022/01/31 01:33:29;;;;;;;18.42;6.57;;;;;;;;;;5053330;28;20033;-77
2022/01/31 01:35:55;;;;;;;19.35;6.50;;;;;;;;;;5053120;28;20029;-76
2022/01/31 01:38:27;;;;;;;20.52;8.82;;;;;;;;;;5052570;28;20033;-76
2022/01/31 01:40:52;;;;;;;15.15;6.63;;;;;;;;;;5053608;28;20020;-78
2022/01/31 01:43:17;;;;;;;13.30;5.93;;;;;;;;;;5052860;28;20477;-76
2022/01/31 01:45:43;;;;;;;12.65;4.85;;;;;;;;;;5053378;28;20097;-76
2022/01/31 01:48:09;;;;;;;19.13;5.85;;;;;;;;;;5045436;28;20053;-77
2022/01/31 01:50:36;;;;;;;11.18;5.03;;;;;;;;;;5034900;28;20021;-77
2022/01/31 01:53:02;;;;;;;15.15;4.88;;;;;;;;;;5048129;28;20037;-78
2022/01/31 01:55:27;;;;;;;14.40;5.80;;;;;;;;;;5037395;28;20056;-77
2022/01/31 01:57:53;;;;;;;15.05;5.90;;;;;;;;;;5034950;28;20146;-76
2022/01/31 02:00:25;;;;;;;9.90;3.90;;;;;;;;;;5047932;28;20029;-76
2022/01/31 02:02:50;;;;;;;19.08;7.72;;;;;;;;;;5033409;28;20035;-76
2022/01/31 02:05:16;;;;;;;13.20;5.70;;;;;;;;;;5034598;28;20017;-76
2022/01/31 02:07:42;;;;;;;17.75;8.25;;;;;;;;;;5036770;28;20052;-77
2022/01/31 02:10:07;;;;;;;23.00;9.43;;;;;;;;;;5052490;28;20103;-77
2022/01/31 02:12:39;;;;;;;16.80;8.50;;;;;;;;;;5052765;28;20452;-76
2022/01/31 02:15:05;;;;;;;18.70;6.70;;;;;;;;;;5053256;28;20028;-76
2022/01/31 02:17:30;;;;;;;14.88;4.78;;;;;;;;;;5067917;28;20029;-76
2022/01/31 02:19:55;;;;;;;15.55;5.35;;;;;;;;;;5053126;28;20039;-75
2022/01/31 02:22:21;;;;;;;20.92;6.32;;;;;;;;;;5056441;28;20032;-77
2022/01/31 02:24:46;;;;;;;19.65;5.93;;;;;;;;;;5056020;28;20024;-76
2022/01/31 02:27:11;;;;;;;20.77;6.55;;;;;;;;;;5051886;28;20082;-75
2022/01/31 02:29:37;;;;;;;22.48;7.05;;;;;;;;;;5052886;28;20031;-76
2022/01/31 02:32:02;;;;;;;15.15;4.82;;;;;;;;;;5037726;28;20044;-77
2022/01/31 02:34:27;;;;;;;17.30;4.90;;;;;;;;;;5038436;28;20048;-77
2022/01/31 02:36:53;;;;;;;18.70;6.55;;;;;;;;;;5043373;28;20068;-76
2022/01/31 02:39:18;;;;;;;14.73;4.60;;;;;;;;;;5056221;28;20037;-76
2022/01/31 02:41:44;;;;;;;13.20;4.38;;;;;;;;;;5056184;28;20048;-76
2022/01/31 02:44:15;;;;;;;12.40;4.47;;;;;;;;;;5056363;28;20458;-75
2022/01/31 02:46:47;;;;;;;13.27;4.88;;;;;;;;;;5036818;28;20025;-76
2022/01/31 02:49:13;;;;;;;17.13;5.90;;;;;;;;;;5051208;28;20368;-77
2022/01/31 02:51:45;;;;;;;13.30;5.25;;;;;;;;;;5038070;28;20102;-76
2022/01/31 02:54:10;;;;;;;11.82;4.30;;;;;;;;;;5054384;28;20040;-77
2022/01/31 02:56:37;;;;;;;19.27;6.78;;;;;;;;;;5046140;28;20029;-76
2022/01/31 02:59:02;;;;;;;10.02;3.80;;;;;;;;;;5037543;28;20471;-76
2022/01/31 03:01:27;;;;;;;8.55;3.40;;;;;;;;;;5049950;28;20031;-76
2022/01/31 03:03:52;;;;;;;12.18;3.55;;;;;;;;;;5036187;28;20464;-76
2022/01/31 03:06:18;;;;;;;11.32;3.78;;;;;;;;;;5048917;28;20468;-77
2022/01/31 03:08:44;;;;;;;10.93;4.13;;;;;;;;;;5055693;28;21126;-77
2022/01/31 03:11:09;;;;;;;9.57;2.78;;;;;;;;;;5044346;28;20045;-77
2022/01/31 03:13:34;;;;;;;8.30;3.53;;;;;;;;;;5037627;28;20635;-78
2022/01/31 03:15:59;;;;;;;12.95;4.60;;;;;;;;;;5044915;28;20033;-75
2022/01/31 03:18:27;;;;;;;10.63;4.45;;;;;;;;;;5054419;28;20039;-76
2022/01/31 03:20:52;;;;;;;10.90;3.53;;;;;;;;;;5055607;28;20044;-77
2022/01/31 03:23:18;;;;;;;15.93;5.47;;;;;;;;;;5053813;28;20059;-76
2022/01/31 03:25:44;;;;;;;15.65;4.90;;;;;;;;;;5055105;28;21055;-77
2022/01/31 03:28:09;;;;;;;13.57;4.75;;;;;;;;;;5054738;28;20060;-77
2022/01/31 03:30:35;;;;;;;12.43;4.47;;;;;;;;;;5055002;28;20059;-76
2022/01/31 03:33:00;;;;;;;10.15;4.70;;;;;;;;;;5054915;28;20032;-77
2022/01/31 03:35:25;;;;;;;12.00;3.90;;;;;;;;;;5055187;28;20025;-76
2022/01/31 03:37:51;;;;;;;12.45;3.63;;;;;;;;;;5054871;28;20016;-77
2022/01/31 03:40:16;;;;;;;18.08;4.05;;;;;;;;;;5054808;28;20039;-76
2022/01/31 03:42:41;;;;;;;15.23;3.80;;;;;;;;;;5055030;28;20107;-77
2022/01/31 03:45:08;;;;;;;13.63;4.40;;;;;;;;;;5053314;28;20024;-76
2022/01/31 03:47:33;;;;;;;11.98;4.82;;;;;;;;;;5054561;28;20733;-77
2022/01/31 03:49:59;;;;;;;8.50;3.78;;;;;;;;;;5053506;28;20035;-77
2022/01/31 03:52:24;;;;;;;7.70;3.78;;;;;;;;;;5054617;28;20024;-76
2022/01/31 03:54:49;;;;;;;12.80;3.95;;;;;;;;;;5053493;28;20035;-76
2022/01/31 03:57:15;;;;;;;14.55;4.20;;;;;;;;;;5038106;28;20045;-76
2022/01/31 03:59:40;;;;;;;8.70;3.42;;;;;;;;;;5047722;28;20024;-75
2022/01/31 04:02:07;;;;;;;9.68;4.18;;;;;;;;;;5047520;28;20029;-75
2022/01/31 04:04:33;;;;;;;10.48;3.50;;;;;;;;;;5036527;28;20020;-75
2022/01/31 04:06:58;;;;;;;11.90;3.55;;;;;;;;;;5054537;28;20047;-76
2022/01/31 04:09:23;;;;;;;10.30;2.67;;;;;;;;;;5054255;28;20059;-77
2022/01/31 04:11:49;;;;;;;10.00;3.30;;;;;;;;;;5052504;28;20518;-78
2022/01/31 04:14:14;;;;;;;8.98;3.35;;;;;;;;;;5054394;28;20028;-76
2022/01/31 04:16:39;;;;;;;15.05;4.43;;;;;;;;;;5035598;28;20086;-76
2022/01/31 04:19:05;;;;;;;15.20;5.05;;;;;;;;;;5047702;28;20027;-76
2022/01/31 04:21:31;;;;;;;20.95;9.93;;;;;;;;;;5037852;28;20116;-76
2022/01/31 04:23:58;;;;;;;22.80;7.60;;;;;;;;;;5036139;28;20865;-76
2022/01/31 04:26:31;;;;;;;28.15;8.88;;;;;;;;;;5051651;28;20025;-76
2022/01/31 04:29:04;;;;;;;59.95;25.17;;;;;;;;;;5054015;28;20017;-75
2022/01/31 04:31:41;;;;;;;61.20;25.58;;;;;;;;;;5052848;28;20029;-76
2022/01/31 04:34:07;;;;;;;23.33;9.30;;;;;;;;;;5054380;28;20020;-75
2022/01/31 04:36:32;;;;;;;14.85;6.53;;;;;;;;;;5042135;28;20048;-75
2022/01/31 04:38:58;;;;;;;16.25;6.18;;;;;;;;;;5036127;28;20530;-75
2022/01/31 04:41:23;;;;;;;9.98;3.88;;;;;;;;;;5036054;28;20025;-75
2022/01/31 04:43:50;;;;;;;13.77;4.55;;;;;;;;;;5035397;28;20368;-75
2022/01/31 04:46:16;;;;;;;11.30;3.85;;;;;;;;;;5035659;28;20124;-75
2022/01/31 04:48:43;;;;;;;14.07;6.57;;;;;;;;;;5036161;28;20174;-76
2022/01/31 04:51:09;;;;;;;26.95;14.60;;;;;;;;;;5035731;28;20019;-75
2022/01/31 04:53:35;;;;;;;32.00;15.13;;;;;;;;;;5048438;28;20033;-75
2022/01/31 04:56:00;;;;;;;25.92;12.20;;;;;;;;;;5037881;28;20030;-75
2022/01/31 04:58:26;;;;;;;27.42;13.95;;;;;;;;;;5050198;28;20025;-75
2022/01/31 05:00:51;;;;;;;25.20;12.52;;;;;;;;;;5053861;28;20020;-75
2022/01/31 05:03:19;;;;;;;13.13;6.10;;;;;;;;;;5069091;28;20190;-76
2022/01/31 05:05:45;;;;;;;13.75;5.05;;;;;;;;;;5053476;28;20065;-76
2022/01/31 05:08:10;;;;;;;32.55;15.27;;;;;;;;;;5066057;28;20112;-75
2022/01/31 05:10:42;;;;;;;33.33;16.30;;;;;;;;;;5053835;28;20668;-75
2022/01/31 05:13:08;;;;;;;40.45;18.45;;;;;;;;;;5053267;28;20048;-75
2022/01/31 05:15:33;;;;;;;39.75;16.90;;;;;;;;;;5053056;28;20383;-75
2022/01/31 05:17:58;;;;;;;49.13;23.60;;;;;;;;;;5052924;28;20111;-76
2022/01/31 05:20:23;;;;;;;52.92;23.98;;;;;;;;;;5052517;28;20043;-74
2022/01/31 05:22:49;;;;;;;49.80;22.48;;;;;;;;;;5053623;28;20185;-75
2022/01/31 05:25:14;;;;;;;61.65;27.17;;;;;;;;;;5053737;28;20079;-76
2022/01/31 05:27:39;;;;;;;46.55;22.95;;;;;;;;;;5053345;28;20055;-76
2022/01/31 05:30:05;;;;;;;41.65;21.70;;;;;;;;;;5053753;28;20078;-75
2022/01/31 05:32:30;;;;;;;43.53;21.05;;;;;;;;;;5068349;28;20072;-75
2022/01/31 05:34:56;;;;;;;36.00;17.73;;;;;;;;;;5051739;28;20024;-75
2022/01/31 05:37:21;;;;;;;39.97;19.58;;;;;;;;;;5053505;28;20439;-75
2022/01/31 05:39:47;;;;;;;38.70;15.95;;;;;;;;;;5052348;28;20458;-76
2022/01/31 05:42:13;;;;;;;27.55;13.18;;;;;;;;;;5052974;28;20029;-76
2022/01/31 05:44:38;;;;;;;33.60;17.50;;;;;;;;;;5049960;28;20029;-76
2022/01/31 05:47:04;;;;;;;48.58;24.63;;;;;;;;;;5052211;28;20456;-78
2022/01/31 05:49:29;;;;;;;43.58;21.92;;;;;;;;;;5063953;28;20078;-78
2022/01/31 05:52:01;;;;;;;50.20;24.88;;;;;;;;;;5048848;28;20029;-76
2022/01/31 05:54:27;;;;;;;217.43;100.05;;;;;;;;;;5046052;28;20427;-78
2022/01/31 05:56:53;;;;;;;181.15;81.70;;;;;;;;;;5039793;28;20129;-75
2022/01/31 05:59:18;;;;;;;124.13;54.58;;;;;;;;;;5052695;28;20029;-76
2022/01/31 06:01:43;;;;;;;122.28;59.95;;;;;;;;;;5038965;28;20033;-77
2022/01/31 06:04:09;;;;;;;201.70;94.18;;;;;;;;;;5039059;28;20467;-77
2022/01/31 06:06:35;;;;;;;142.35;62.67;;;;;;;;;;5038904;28;20418;-78
2022/01/31 06:09:00;;;;;;;155.15;71.85;;;;;;;;;;5038458;28;20017;-78
2022/01/31 06:11:27;;;;;;;134.82;63.28;;;;;;;;;;5050204;28;20045;-78
2022/01/31 06:13:55;;;;;;;132.05;67.03;;;;;;;;;;5043868;28;20025;-77
2022/01/31 06:16:20;;;;;;;121.82;64.38;;;;;;;;;;5055348;28;20021;-76
2022/01/31 06:18:46;;;;;;;144.05;75.32;;;;;;;;;;5055881;28;20027;-76
2022/01/31 06:21:12;;;;;;;88.13;45.25;;;;;;;;;;5048606;28;20056;-78
2022/01/31 06:23:38;;;;;;;96.15;54.33;;;;;;;;;;5049835;28;20032;-77
2022/01/31 06:26:03;;;;;;;113.60;57.47;;;;;;;;;;5056549;28;20032;-76
2022/01/31 06:28:28;;;;;;;90.65;48.83;;;;;;;;;;5052238;28;20032;-75
2022/01/31 06:30:54;;;;;;;72.20;37.92;;;;;;;;;;5038104;28;20472;-76
2022/01/31 06:33:19;;;;;;;45.45;24.80;;;;;;;;;;5051230;28;20037;-76
2022/01/31 06:35:45;;;;;;;55.42;33.35;;;;;;;;;;5037842;28;20025;-76
2022/01/31 06:38:11;;;;;;;48.35;27.35;;;;;;;;;;5036960;28;20019;-76
2022/01/31 06:40:36;;;;;;;48.40;24.52;;;;;;;;;;5039681;28;20037;-76
2022/01/31 06:43:02;;;;;;;48.25;24.83;;;;;;;;;;5054158;28;20028;-76
2022/01/31 06:45:27;;;;;;;39.33;20.33;;;;;;;;;;5055095;28;20588;-75
2022/01/31 06:47:52;;;;;;;39.70;18.88;;;;;;;;;;5055393;28;20472;-75
2022/01/31 06:50:18;;;;;;;26.60;13.30;;;;;;;;;;5070557;28;20082;-77
2022/01/31 06:52:43;;;;;;;32.33;15.45;;;;;;;;;;5058140;28;20552;-76
2022/01/31 06:55:18;;;;;;;25.48;10.77;;;;;;;;;;5037544;28;20033;-75
2022/01/31 06:57:43;;;;;;;41.13;21.45;;;;;;;;;;5036975;28;20463;-76
2022/01/31 07:00:09;;;;;;;44.13;20.65;;;;;;;;;;5037429;28;20059;-76
2022/01/31 07:02:34;;;;;;;46.70;27.33;;;;;;;;;;5043895;28;20048;-76
2022/01/31 07:05:03;;;;;;;32.47;15.45;;;;;;;;;;5045197;28;20521;-77
2022/01/31 07:07:28;;;;;;;25.67;12.38;;;;;;;;;;5055327;28;20035;-79
2022/01/31 07:09:54;;;;;;;28.75;14.57;;;;;;;;;;5054942;28;20020;-76
2022/01/31 07:12:23;;;;;;;19.13;6.57;;;;;;;;;;5070028;28;20071;-77
2022/01/31 07:14:51;;;;;;;16.98;6.05;;;;;;;;;;5055157;28;20024;-77
2022/01/31 07:17:18;;;;;;;10.40;5.78;;;;;;;;;;5054202;28;20036;-79
2022/01/31 07:19:45;;;;;;;17.83;10.45;;;;;;;;;;5055772;28;20028;-79
2022/01/31 07:22:12;;;;;;;39.60;19.65;;;;;;;;;;5054693;28;20082;-76
2022/01/31 07:27:05;;;;;;;13.85;6.03;;;;;;;;;;5040358;28;20035;-78
2022/01/31 07:29:31;;;;;;;16.75;6.97;;;;;;;;;;5054166;28;20024;-75
2022/01/31 07:31:57;;;;;;;10.90;3.63;;;;;;;;;;5054521;28;20090;-80
2022/01/31 07:34:25;;;;;;;9.05;4.43;;;;;;;;;;5053721;28;20542;-79
2022/01/31 07:36:51;;;;;;;21.83;7.15;;;;;;;;;;5036981;28;20029;-78
2022/01/31 07:39:16;;;;;;;21.23;9.00;;;;;;;;;;5036547;28;20024;-79
2022/01/31 07:41:42;;;;;;;18.30;10.13;;;;;;;;;;5050254;28;20452;-77
2022/01/31 07:44:08;;;;;;;95.13;33.45;;;;;;;;;;5070364;28;20525;-77
2022/01/31 07:46:34;;;;;;;32.63;11.15;;;;;;;;;;5054482;28;20017;-75
2022/01/31 07:48:59;;;;;;;45.28;22.13;;;;;;;;;;5054720;28;20084;-79
2022/01/31 07:51:25;;;;;;;13.23;4.65;;;;;;;;;;5054538;28;20389;-79
2022/01/31 07:53:50;;;;;;;17.08;9.40;;;;;;;;;;5052794;28;20031;-78
2022/01/31 07:56:17;;;;;;;14.00;7.18;;;;;;;;;;5047849;28;20055;-76
2022/01/31 07:58:42;;;;;;;35.13;18.98;;;;;;;;;;5053380;28;20111;-80
2022/01/31 08:01:08;;;;;;;61.95;28.40;;;;;;;;;;5036292;28;20100;-78
2022/01/31 08:03:34;;;;;;;23.63;10.13;;;;;;;;;;5036166;28;20029;-77
2022/01/31 08:06:00;;;;;;;19.90;7.78;;;;;;;;;;5035536;28;20029;-78
2022/01/31 08:08:28;;;;;;;11.93;4.25;;;;;;;;;;5051009;28;20032;-77
2022/01/31 08:11:00;;;;;;;8.88;4.45;;;;;;;;;;5035886;28;20021;-79
2022/01/31 08:13:26;;;;;;;12.38;5.15;;;;;;;;;;5036166;28;20526;-79
2022/01/31 08:16:09;;;;;;;9.25;4.28;;;;;;;;;;5035902;28;20025;-80
2022/01/31 08:18:39;;;;;;;18.10;5.68;;;;;;;;;;5051813;28;20020;-74
2022/01/31 08:21:05;;;;;;;14.05;5.72;;;;;;;;;;5053599;28;20062;-74
2022/01/31 08:23:32;;;;;;;17.30;10.15;;;;;;;;;;5053441;28;20028;-75
2022/01/31 08:26:00;;;;;;;14.73;7.13;;;;;;;;;;5054110;28;20016;-77
2022/01/31 08:28:39;;;;;;;18.35;6.10;;;;;;;;;;5045527;28;20021;-76
2022/01/31 08:31:13;;;;;;;18.42;8.55;;;;;;;;;;5047413;28;20032;-75
2022/01/31 08:33:44;;;;;;;19.17;8.48;;;;;;;;;;5035556;28;20029;-74
2022/01/31 08:36:10;;;;;;;23.40;12.20;;;;;;;;;;5037184;28;20555;-75
2022/01/31 08:38:36;;;;;;;16.05;7.07;;;;;;;;;;5035478;28;20100;-75
2022/01/31 08:41:02;;;;;;;17.73;8.60;;;;;;;;;;5036001;28;20048;-75
2022/01/31 08:43:28;;;;;;;15.25;5.53;;;;;;;;;;5035587;28;20463;-76
2022/01/31 08:45:56;;;;;;;11.15;4.68;;;;;;;;;;5050014;28;20353;-78
2022/01/31 08:48:25;;;;;;;11.27;3.85;;;;;;;;;;5035275;28;20104;-77
2022/01/31 08:50:51;;;;;;;15.82;5.13;;;;;;;;;;5036230;28;20054;-76
2022/01/31 08:53:16;;;;;;;12.02;6.70;;;;;;;;;;5035771;28;20126;-76
2022/01/31 08:55:48;;;;;;;6.60;3.58;;;;;;;;;;5037614;28;20029;-77
2022/01/31 08:58:14;;;;;;;9.52;4.25;;;;;;;;;;5035868;28;20907;-75
2022/01/31 09:00:40;;;;;;;16.15;6.10;;;;;;;;;;5051191;28;20111;-77
2022/01/31 09:05:37;;;;;;;17.48;6.40;;;;;;;;;;5038299;28;20097;-75
2022/01/31 09:08:02;;;;;;;9.45;3.90;;;;;;;;;;5035996;28;20042;-76
2022/01/31 09:10:28;;;;;;;11.43;4.57;;;;;;;;;;5048072;28;20072;-75
2022/01/31 09:12:53;;;;;;;10.60;3.00;;;;;;;;;;5035059;28;20092;-75
2022/01/31 09:15:18;;;;;;;10.05;3.35;;;;;;;;;;5035712;28;20017;-75
2022/01/31 09:17:44;;;;;;;13.82;6.28;;;;;;;;;;5034184;28;20525;-75
2022/01/31 09:20:09;;;;;;;12.10;6.32;;;;;;;;;;5035586;28;20017;-75
2022/01/31 09:22:35;;;;;;;9.43;3.83;;;;;;;;;;5034718;28;20081;-75
2022/01/31 09:25:00;;;;;;;12.93;5.85;;;;;;;;;;5041360;28;20696;-74
2022/01/31 09:27:27;;;;;;;13.57;3.97;;;;;;;;;;5051715;28;20044;-75
2022/01/31 09:29:53;;;;;;;8.93;4.53;;;;;;;;;;5055900;28;20489;-76
2022/01/31 09:32:24;;;;;;;8.15;4.85;;;;;;;;;;5055556;28;20025;-76
2022/01/31 09:34:49;;;;;;;11.43;3.88;;;;;;;;;;5052142;28;20452;-76
2022/01/31 09:37:15;;;;;;;9.82;4.10;;;;;;;;;;5056462;28;20024;-76
2022/01/31 09:39:42;;;;;;;15.90;4.90;;;;;;;;;;5051831;28;20136;-79
2022/01/31 09:42:14;;;;;;;16.20;6.38;;;;;;;;;;5056056;28;20541;-75
2022/01/31 09:44:50;;;;;;;11.13;3.75;;;;;;;;;;5038484;28;20052;-75
2022/01/31 09:48:31;;;;;;;16.13;5.95;;;;;;;;;;5038896;28;20523;-76
2022/01/31 09:50:10;;;;;;;17.63;8.80;;;;;;;;;;5054286;28;20025;-76
2022/01/31 09:52:35;;;;;;;18.38;12.48;;;;;;;;;;5067994;28;20056;-77
2022/01/31 09:55:01;;;;;;;9.40;5.15;;;;;;;;;;5038741;28;20017;-76
2022/01/31 09:57:26;;;;;;;13.25;5.20;;;;;;;;;;5041093;28;20032;-77
2022/01/31 09:59:52;;;;;;;10.18;3.28;;;;;;;;;;5050611;28;20018;-75
2022/01/31 10:02:18;;;;;;;14.45;7.45;;;;;;;;;;5040559;28;20365;-77
2022/01/31 10:04:44;;;;;;;22.45;9.20;;;;;;;;;;5038199;28;20025;-76
2022/01/31 10:07:10;;;;;;;22.25;9.52;;;;;;;;;;5038481;28;20434;-77
2022/01/31 10:09:35;;;;;;;23.15;10.48;;;;;;;;;;5039159;28;20025;-76
2022/01/31 10:12:11;;;;;;;24.42;10.95;;;;;;;;;;5038439;28;20102;-77
2022/01/31 10:17:23;;;;;;;32.55;12.13;;;;;;;;;;5056598;28;20042;-76
2022/01/31 10:19:49;;;;;;;36.75;12.57;;;;;;;;;;5056146;28;20102;-77
2022/01/31 10:22:16;;;;;;;21.95;10.55;;;;;;;;;;5056338;28;20040;-78
2022/01/31 10:24:44;;;;;;;37.53;20.33;;;;;;;;;;5038657;28;20107;-76
2022/01/31 10:27:11;;;;;;;57.55;25.08;;;;;;;;;;5037844;28;20533;-76
2022/01/31 10:29:36;;;;;;;15.50;8.63;;;;;;;;;;5042754;28;20451;-76
2022/01/31 10:32:07;;;;;;;19.45;7.63;;;;;;;;;;5071798;28;20036;-76
2022/01/31 10:34:37;;;;;;;21.00;8.50;;;;;;;;;;5056074;28;20025;-77
2022/01/31 10:37:02;;;;;;;;;;;;;;;;;;5055224;28;20049;-77
2022/01/31 10:53:11;;;;;;;18.23;7.68;;;;;;;;;;5055916;28;20121;-79
2022/01/31 10:55:37;;;;;;;14.07;5.35;;;;;;;;;;5053152;28;20455;-76
2022/01/31 10:58:07;;;;;;;14.68;4.25;;;;;;;;;;5040258;28;20562;-78
2022/01/31 11:00:33;;;;;;;15.82;5.40;;;;;;;;;;5037891;28;20028;-78
2022/01/31 11:03:00;;;;;;;45.58;19.00;;;;;;;;;;5052412;28;20218;-78
2022/01/31 11:05:25;;;;;;;31.25;12.30;;;;;;;;;;5036964;28;20028;-75
2022/01/31 11:08:10;;;;;;;32.85;12.23;;;;;;;;;;5036103;28;20021;-76
2022/01/31 11:10:36;;;;;;;13.43;5.38;;;;;;;;;;5048032;28;20021;-78
2022/01/31 11:13:01;;;;;;;13.23;6.15;;;;;;;;;;5035266;28;20088;-75
2022/01/31 11:15:26;;;;;;;13.77;7.18;;;;;;;;;;5035458;28;20036;-76
2022/01/31 11:17:57;;;;;;;14.85;5.70;;;;;;;;;;5048077;28;20048;-76
2022/01/31 11:20:23;;;;;;;17.05;7.45;;;;;;;;;;5036242;28;20025;-77
2022/01/31 11:22:55;;;;;;;27.48;9.95;;;;;;;;;;5049814;28;20028;-76
2022/01/31 11:25:22;;;;;;;17.95;8.63;;;;;;;;;;5055169;28;20016;-76
2022/01/31 11:27:49;;;;;;;11.50;5.65;;;;;;;;;;5037188;28;20068;-77
2022/01/31 11:30:14;;;;;;;13.20;4.30;;;;;;;;;;5037611;28;20032;-76
2022/01/31 11:32:41;;;;;;;24.27;12.02;;;;;;;;;;5035722;28;20029;-76
2022/01/31 11:35:07;;;;;;;58.25;28.23;;;;;;;;;;5036975;28;20207;-78
2022/01/31 11:37:32;;;;;;;29.88;13.02;;;;;;;;;;5048980;28;20138;-77
2022/01/31 11:40:00;;;;;;;58.70;27.40;;;;;;;;;;5037474;28;20102;-78
2022/01/31 11:42:26;;;;;;;36.10;20.73;;;;;;;;;;5037306;28;20028;-78
2022/01/31 11:45:01;;;;;;;39.45;18.80;;;;;;;;;;5040527;28;20065;-78
2022/01/31 11:47:28;;;;;;;18.65;9.95;;;;;;;;;;5049975;28;20074;-75
2022/01/31 11:49:53;;;;;;;17.30;10.63;;;;;;;;;;5052407;28;20528;-76
2022/01/31 11:52:19;;;;;;;11.88;5.63;;;;;;;;;;5049778;28;20128;-78
2022/01/31 11:54:45;;;;;;;14.13;7.75;;;;;;;;;;5037181;28;20460;-76
2022/01/31 11:57:15;;;;;;;12.88;6.88;;;;;;;;;;5039266;28;20159;-76
2022/01/31 11:59:41;;;;;;;20.85;10.95;;;;;;;;;;5036655;28;20024;-75
2022/01/31 12:02:07;;;;;;;13.70;6.97;;;;;;;;;;5036728;28;20031;-79
2022/01/31 12:04:33;;;;;;;19.27;10.98;;;;;;;;;;5050339;28;20133;-77
2022/01/31 12:06:58;;;;;;;8.18;4.88;;;;;;;;;;5051127;28;20048;-76
2022/01/31 12:09:27;;;;;;;9.65;6.05;;;;;;;;;;5036296;28;20110;-76
2022/01/31 12:11:53;;;;;;;10.45;4.63;;;;;;;;;;5043372;28;20989;-75
2022/01/31 12:14:24;;;;;;;8.82;4.47;;;;;;;;;;5051068;28;20028;-77
2022/01/31 12:16:51;;;;;;;15.15;6.30;;;;;;;;;;5053986;28;20028;-76
2022/01/31 12:22:04;;;;;;;11.93;5.38;;;;;;;;;;5048636;28;20171;-78
2022/01/31 12:24:40;;;;;;;6.38;3.72;;;;;;;;;;5049267;28;20075;-78
2022/01/31 12:27:09;;;;;;;14.30;7.95;;;;;;;;;;5048393;28;20021;-75
2022/01/31 12:29:36;;;;;;;29.20;12.65;;;;;;;;;;5040939;28;20035;-76
2022/01/31 12:32:22;;;;;;;25.77;12.05;;;;;;;;;;5047454;28;20083;-78
2022/01/31 12:34:47;;;;;;;15.77;8.60;;;;;;;;;;5037109;28;20180;-77
2022/01/31 12:37:19;;;;;;;23.98;9.98;;;;;;;;;;5052269;28;20024;-75
2022/01/31 12:39:55;;;;;;;34.22;17.83;;;;;;;;;;5052222;28;20024;-74
2022/01/31 12:42:50;;;;;;;32.92;15.45;;;;;;;;;;5059049;28;20139;-76
2022/01/31 12:45:27;;;;;;;14.77;7.78;;;;;;;;;;5050648;28;20111;-75
2022/01/31 12:48:08;;;;;;;15.85;7.65;;;;;;;;;;5054145;28;20031;-75
2022/01/31 12:50:38;;;;;;;10.98;5.68;;;;;;;;;;5052835;28;20357;-76
2022/01/31 12:53:06;;;;;;;;;;;;;;;;;;5053985;28;20041;-77
2022/01/31 12:55:35;;;;;;;27.80;13.20;;;;;;;;;;5037677;28;19957;-75
2022/01/31 12:58:00;;;;;;;68.82;31.70;;;;;;;;;;5049496;28;20472;-76
2022/01/31 13:00:39;;;;;;;32.00;16.02;;;;;;;;;;5036073;28;20032;-75
2022/01/31 13:03:07;;;;;;;20.77;10.90;;;;;;;;;;5035449;28;20029;-76
2022/01/31 13:05:33;;;;;;;22.73;12.50;;;;;;;;;;5047820;28;20384;-77
2022/01/31 13:07:59;;;;;;;10.63;6.68;;;;;;;;;;5035308;28;20021;-75
2022/01/31 13:10:24;;;;;;;13.40;7.20;;;;;;;;;;5045870;28;20524;-77
2022/01/31 13:13:00;;;;;;;10.07;5.85;;;;;;;;;;5037685;28;20053;-78
2022/01/31 13:15:27;;;;;;;12.07;8.00;;;;;;;;;;5050781;28;20052;-78
2022/01/31 13:18:08;;;;;;;20.17;11.48;;;;;;;;;;5034062;28;20020;-78
2022/01/31 13:20:34;;;;;;;20.85;13.75;;;;;;;;;;5047725;28;20037;-77
2022/01/31 13:23:00;;;;;;;16.67;12.10;;;;;;;;;;5039341;28;20025;-77
2022/01/31 13:25:26;;;;;;;22.38;15.38;;;;;;;;;;5053043;28;20031;-78
2022/01/31 13:27:52;;;;;;;16.15;7.72;;;;;;;;;;5053008;28;20135;-76
2022/01/31 13:30:19;;;;;;;10.30;5.68;;;;;;;;;;5045546;28;20100;-77
2022/01/31 13:32:44;;;;;;;14.40;7.45;;;;;;;;;;5050259;28;20039;-77
2022/01/31 13:35:11;;;;;;;22.60;8.00;;;;;;;;;;5034830;28;20044;-77
2022/01/31 13:37:47;;;;;;;14.40;8.15;;;;;;;;;;5049620;28;20025;-76
2022/01/31 13:40:13;;;;;;;14.40;8.63;;;;;;;;;;5038339;28;20032;-76
2022/01/31 13:42:40;;;;;;;10.45;6.68;;;;;;;;;;5052026;28;20029;-74
2022/01/31 13:45:22;;;;;;;14.63;8.80;;;;;;;;;;5042913;28;20058;-74
2022/01/31 13:47:54;;;;;;;28.23;13.27;;;;;;;;;;5050812;28;20051;-77
2022/01/31 13:50:23;;;;;;;17.08;7.65;;;;;;;;;;5049917;28;20094;-76
2022/01/31 13:52:59;;;;;;;13.30;7.53;;;;;;;;;;5050425;28;20041;-76
2022/01/31 13:55:25;;;;;;;13.25;8.45;;;;;;;;;;5045396;28;20047;-75
2022/01/31 13:57:51;;;;;;;22.83;13.82;;;;;;;;;;5047698;28;20448;-76
2022/01/31 14:00:16;;;;;;;16.30;8.65;;;;;;;;;;5035152;28;20036;-75
2022/01/31 14:02:57;;;;;;;18.33;9.02;;;;;;;;;;5035293;28;20025;-76
2022/01/31 14:05:24;;;;;;;16.13;8.65;;;;;;;;;;5052280;28;20016;-77
2022/01/31 14:08:03;;;;;;;13.70;8.30;;;;;;;;;;5053266;28;20028;-77
2022/01/31 14:10:31;;;;;;;13.85;8.80;;;;;;;;;;5048665;28;20035;-76
2022/01/31 14:13:00;;;;;;;10.23;5.28;;;;;;;;;;5035408;28;20484;-78
2022/01/31 14:15:26;;;;;;;11.40;6.35;;;;;;;;;;5049815;28;20043;-77
2022/01/31 14:17:52;;;;;;;11.13;5.55;;;;;;;;;;5053279;28;20025;-76
2022/01/31 14:20:19;;;;;;;15.52;6.40;;;;;;;;;;5039040;28;20074;-77
2022/01/31 14:22:45;;;;;;;20.40;10.20;;;;;;;;;;5040042;28;20029;-76
2022/01/31 14:25:10;;;;;;;30.20;16.60;;;;;;;;;;5052304;28;20173;-77
2022/01/31 14:27:36;;;;;;;55.30;29.40;;;;;;;;;;5038986;28;20021;-78
2022/01/31 14:30:01;;;;;;;25.55;14.85;;;;;;;;;;5038540;28;20028;-78
2022/01/31 14:32:32;;;;;;;10.32;6.38;;;;;;;;;;5047741;28;20031;-76
2022/01/31 14:35:01;;;;;;;35.10;21.02;;;;;;;;;;5056115;28;20024;-76
2022/01/31 14:37:32;;;;;;;31.63;20.55;;;;;;;;;;5056857;28;20501;-78
2022/01/31 14:42:57;;;;;;;20.70;13.75;;;;;;;;;;5056316;28;20032;-80
2022/01/31 14:48:09;;;;;;;89.97;41.28;;;;;;;;;;5049966;28;20028;-79
2022/01/31 14:50:35;;;;;;;57.55;29.70;;;;;;;;;;5038085;28;20020;-78
2022/01/31 14:53:34;;;;;;;232.07;119.50;;;;;;;;;;5041048;28;20082;-78
2022/01/31 14:56:00;;;;;;;104.60;51.35;;;;;;;;;;5026404;28;20072;-75